Terminal Aerodrome Forecast
Issued by NWS

Home | Current Version | Previous Version | Graphics & Text | Print | Product List | Glossary On
Versions: 1 2 3 4 5 6 7 8 9 10 11 12 13
000
FTUS42 KMHX 122330
TAFISO
TAF
KISO 122330Z 1300/1324 30014G23KT P6SM BKN070
     FM130200 31014G23KT P6SM FEW110
     FM131900 26011KT P6SM SKC
      AMD LTD TO CLD VIS AND WIND=

USA.gov is the U.S. government's official web portal to all federal, state and local government web resources and services.